Croydon, Utah
Current Conditions -  °F | °C
As of 4:58 PM on Friday 24 Oct 2014 (Local Time) from KHIF Reporting Station
Clear Clear  
Wind Chill: 24°   Ceiling: Unl
Heat Index: 24°   Visibility: 10mi
Dew Point:   Wind: 8mph
Humidity: 22%   Direction: 170°S
Pressure: 30.13"   Gusts: 16mph
Location:  41.07°N, 111.51°W
Report Text: KHIF 242258Z AUTO 17007G14KT 10SM CLR 24/01 A3013 RMK AO2 SLP155 T02400007
Loading
Personal Weather Stations






























Interactive Weather Map
Tropical Storm Tracking
New forecast layout! Learn more

10-Day Weather Forecast

Advertisements
Track Severe Weather on mobile